Time;durP1;ratioP1;P1;durP2;ratioP2;P2;SDS_P1;SDS_P2;PMS_P1;PMS_P2;Temp;Humidity;BMP_temperature;BMP_pressure;BME280_temperature;BME280_humidity;BME280_pressure;Samples;Min_cycle;Max_cycle;Signal;HPM_P1;HPM_P2
2023/01/17 00:02:04;;;;;;;2.50;1.77;;;5.90;99.90;;;;;;5023911;28;20266;-55
2023/01/17 00:10:10;;;;;;;1.47;1.37;;;5.40;99.90;;;;;;5022055;28;20673;-66
2023/01/17 00:12:35;;;;;;;4.90;1.50;;;5.10;99.90;;;;;;5026279;28;20505;-66
2023/01/17 00:15:02;;;;;;;2.07;1.57;;;5.10;99.90;;;;;;5025291;28;20196;-66
2023/01/17 00:17:29;;;;;;;2.37;1.53;;;5.00;99.90;;;;;;5009476;28;20215;-68
2023/01/17 01:35:16;;;;;;;5.23;3.60;;;4.00;99.90;;;;;;5012563;28;20931;-64
2023/01/17 01:37:42;;;;;;;2.53;1.80;;;4.00;99.90;;;;;;5029557;28;20234;-63
2023/01/17 01:40:08;;;;;;;1.63;1.53;;;4.10;99.90;;;;;;5029523;28;20215;-63
2023/01/17 01:42:34;;;;;;;2.97;2.33;;;4.20;99.90;;;;;;5019236;28;20200;-64
2023/01/17 01:45:00;;;;;;;1.60;1.50;;;4.30;99.90;;;;;;5013566;28;20207;-63
2023/01/17 01:47:36;;;;;;;1.77;1.67;;;4.30;99.90;;;;;;5021181;28;20218;-64
2023/01/17 01:50:06;;;;;;;2.90;1.70;;;4.30;99.90;;;;;;5028390;28;20289;-64
2023/01/17 01:52:34;;;;;;;1.67;1.57;;;4.40;99.90;;;;;;5027141;28;20226;-63
2023/01/17 01:55:05;;;;;;;2.20;1.93;;;4.40;99.90;;;;;;5029448;28;20207;-62
2023/01/17 01:57:36;;;;;;;2.67;2.47;;;4.30;99.90;;;;;;5030006;28;20203;-63
2023/01/17 02:00:28;;;;;;;2.90;1.67;;;4.30;99.90;;;;;;5027506;28;20282;-64
2023/01/17 02:02:57;;;;;;;2.80;1.73;;;4.20;99.90;;;;;;5027302;28;20635;-64
2023/01/17 02:05:25;;;;;;;5.23;2.03;;;4.20;99.90;;;;;;5019842;28;20238;-64
2023/01/17 02:08:09;;;;;;;2.40;1.93;;;4.10;99.90;;;;;;5029383;28;20666;-63
2023/01/17 02:10:39;;;;;;;1.63;1.53;;;4.10;99.90;;;;;;5023992;28;20269;-65
2023/01/17 02:13:08;;;;;;;1.77;1.60;;;4.10;99.90;;;;;;5035547;28;20692;-64
2023/01/17 02:16:03;;;;;;;2.13;1.93;;;4.00;99.90;;;;;;5038587;28;20209;-63
2023/01/17 02:18:42;;;;;;;4.37;2.47;;;4.00;99.90;;;;;;5038663;28;20356;-64
2023/01/17 02:21:32;;;;;;;2.33;1.80;;;4.00;99.90;;;;;;5025642;28;20227;-64
2023/01/17 02:24:49;;;;;;;2.90;2.20;;;3.90;99.90;;;;;;5038521;28;20689;-64
2023/01/17 02:27:52;;;;;;;2.63;2.23;;;3.90;99.90;;;;;;5038744;28;20344;-64
2023/01/17 02:30:33;;;;;;;2.87;2.07;;;3.90;99.90;;;;;;5024511;28;20237;-64
2023/01/17 02:33:21;;;;;;;2.27;1.90;;;3.90;99.90;;;;;;5032714;28;20724;-64
2023/01/17 02:36:03;;;;;;;2.23;1.90;;;3.90;99.90;;;;;;5038459;28;20211;-64
2023/01/17 02:38:37;;;;;;;1.87;1.60;;;4.00;99.90;;;;;;5023088;28;20231;-64
2023/01/17 02:41:07;;;;;;;2.73;1.80;;;4.10;99.90;;;;;;5027355;28;20202;-64
2023/01/17 02:43:34;;;;;;;2.50;2.10;;;4.10;99.90;;;;;;5027705;28;20219;-63
2023/01/17 02:46:00;;;;;;;3.17;2.17;;;4.20;99.90;;;;;;5025961;28;20293;-64
2023/01/17 02:48:28;;;;;;;2.33;1.80;;;4.20;99.90;;;;;;5028304;28;20334;-64
2023/01/17 02:51:17;;;;;;;2.50;1.77;;;4.30;99.90;;;;;;5028290;28;20394;-64
2023/01/17 02:54:09;;;;;;;1.97;1.87;;;4.40;99.90;;;;;;5021348;28;20293;-63
2023/01/17 02:56:43;;;;;;;1.70;1.60;;;4.40;99.90;;;;;;5022795;28;20202;-63
2023/01/17 02:59:31;;;;;;;3.00;2.33;;;4.50;99.90;;;;;;5027408;28;20633;-65
2023/01/17 03:02:20;;;;;;;2.03;1.73;;;4.50;99.90;;;;;;5028339;28;20644;-64
2023/01/17 03:04:59;;;;;;;2.17;2.00;;;4.60;99.90;;;;;;5037392;28;20505;-64
2023/01/17 03:07:27;;;;;;;1.70;1.43;;;4.70;99.90;;;;;;5037415;28;20202;-64
2023/01/17 03:09:58;;;;;;;1.87;1.43;;;4.80;99.90;;;;;;5035585;28;20191;-64
2023/01/17 03:12:27;;;;;;;1.70;1.60;;;4.80;99.90;;;;;;5037196;28;20211;-64
2023/01/17 03:14:52;;;;;;;1.67;1.57;;;4.80;99.90;;;;;;5037425;28;20246;-65
2023/01/17 03:17:19;;;;;;;1.80;1.70;;;4.80;99.90;;;;;;5036550;28;20273;-63
2023/01/17 03:19:44;;;;;;;1.57;1.47;;;4.80;99.90;;;;;;5037160;28;20245;-65
2023/01/17 03:22:09;;;;;;;1.87;1.30;;;4.80;99.90;;;;;;5034877;28;20195;-64
2023/01/17 03:24:36;;;;;;;4.67;1.77;;;4.80;99.90;;;;;;5035857;28;20932;-65
2023/01/17 03:27:01;;;;;;;2.23;2.03;;;4.80;99.90;;;;;;5037569;28;20199;-65
2023/01/17 03:29:27;;;;;;;2.00;1.83;;;4.90;99.90;;;;;;5036454;28;20211;-66
2023/01/17 03:31:52;;;;;;;2.40;1.40;;;4.90;99.90;;;;;;5034110;28;20199;-64
2023/01/17 03:34:18;;;;;;;1.23;1.13;;;4.90;99.90;;;;;;5033959;28;20229;-65
2023/01/17 03:36:43;;;;;;;1.60;1.50;;;4.90;99.90;;;;;;5037130;28;20230;-64
2023/01/17 03:39:09;;;;;;;1.40;1.30;;;4.90;99.90;;;;;;5036705;28;20191;-65
2023/01/17 03:41:34;;;;;;;1.90;1.57;;;4.90;99.90;;;;;;5037012;28;20210;-65
2023/01/17 03:44:00;;;;;;;2.57;1.50;;;4.90;99.90;;;;;;5029847;28;20206;-66
2023/01/17 03:46:27;;;;;;;1.30;1.30;;;4.90;99.90;;;;;;5036483;28;20213;-64
2023/01/17 03:48:53;;;;;;;1.30;1.20;;;4.90;99.90;;;;;;5036622;28;20592;-63
2023/01/17 03:51:19;;;;;;;1.40;1.30;;;4.90;99.90;;;;;;5036142;28;20206;-65
2023/01/17 03:53:45;;;;;;;1.43;1.23;;;4.90;99.90;;;;;;5035996;28;20214;-63
2023/01/17 03:56:11;;;;;;;1.67;1.20;;;5.00;99.90;;;;;;5026353;28;20938;-64
2023/01/17 03:58:37;;;;;;;1.57;1.37;;;5.10;99.90;;;;;;5024791;28;20202;-63
2023/01/17 04:01:03;;;;;;;0.97;0.90;;;5.10;99.90;;;;;;5026388;28;20206;-64
2023/01/17 04:03:28;;;;;;;2.20;1.77;;;5.10;99.90;;;;;;5025941;28;20206;-64
2023/01/17 04:05:54;;;;;;;1.07;1.07;;;5.10;99.90;;;;;;5026139;28;20192;-64
2023/01/17 04:08:20;;;;;;;1.40;1.30;;;5.00;99.90;;;;;;5025645;28;20670;-64
2023/01/17 04:10:45;;;;;;;1.30;1.20;;;5.00;99.90;;;;;;5026194;28;20195;-64
2023/01/17 04:13:12;;;;;;;1.00;0.87;;;5.00;99.90;;;;;;5024345;28;20214;-64
2023/01/17 04:15:38;;;;;;;1.00;1.00;;;5.00;99.90;;;;;;5026642;28;20195;-65
2023/01/17 04:18:05;;;;;;;1.20;1.10;;;5.00;99.90;;;;;;5026820;28;20195;-64
2023/01/17 04:20:36;;;;;;;0.90;0.90;;;5.00;99.90;;;;;;5025154;28;20213;-64
2023/01/17 04:23:02;;;;;;;3.40;1.30;;;5.00;99.90;;;;;;5023747;28;20218;-64
2023/01/17 04:25:29;;;;;;;0.80;0.80;;;5.00;99.90;;;;;;5026508;28;20250;-66
2023/01/17 04:27:56;;;;;;;0.93;0.93;;;5.00;99.90;;;;;;5024410;28;20231;-64
2023/01/17 04:30:21;;;;;;;1.60;1.07;;;5.00;99.90;;;;;;5025426;28;20207;-63
2023/01/17 04:32:47;;;;;;;2.13;0.83;;;5.00;99.90;;;;;;5029194;28;20748;-64
2023/01/17 04:35:12;;;;;;;1.10;1.10;;;5.00;99.90;;;;;;5025114;28;20190;-64
2023/01/17 04:37:38;;;;;;;0.80;0.80;;;5.00;99.90;;;;;;5016799;28;20242;-64
2023/01/17 04:40:04;;;;;;;1.00;1.00;;;5.00;99.90;;;;;;5026029;28;20190;-62
2023/01/17 04:42:30;;;;;;;0.80;0.80;;;5.00;99.90;;;;;;5028375;28;20213;-63
2023/01/17 04:44:56;;;;;;;1.10;1.10;;;5.00;99.90;;;;;;5024884;28;20565;-66
2023/01/17 04:47:21;;;;;;;0.87;0.87;;;5.00;99.90;;;;;;5025991;28;21248;-64
2023/01/17 04:49:47;;;;;;;1.10;1.00;;;4.90;99.90;;;;;;5021682;28;20229;-66
2023/01/17 04:52:13;;;;;;;0.80;0.80;;;4.80;99.90;;;;;;5027980;28;20305;-64
2023/01/17 04:54:39;;;;;;;0.83;0.83;;;4.80;99.90;;;;;;5022767;28;20195;-64
2023/01/17 04:57:05;;;;;;;1.00;1.00;;;4.70;99.90;;;;;;5025618;28;20237;-64
2023/01/17 04:59:30;;;;;;;0.80;0.80;;;4.70;99.90;;;;;;5023957;28;20206;-65
2023/01/17 05:01:56;;;;;;;1.07;0.97;;;4.80;99.90;;;;;;5026509;28;20190;-64
2023/01/17 05:04:21;;;;;;;1.17;1.00;;;4.80;99.90;;;;;;5026317;28;20211;-63
2023/01/17 05:06:47;;;;;;;0.90;0.90;;;4.80;99.90;;;;;;5026464;28;20745;-62
2023/01/17 05:09:12;;;;;;;1.10;1.10;;;4.80;99.90;;;;;;5026330;28;20202;-64
2023/01/17 05:11:38;;;;;;;1.10;1.00;;;4.90;99.90;;;;;;5023704;28;20208;-65
2023/01/17 05:14:03;;;;;;;0.97;0.97;;;4.90;99.90;;;;;;5021474;28;20742;-63
2023/01/17 05:16:29;;;;;;;1.20;1.10;;;4.90;99.90;;;;;;5026326;28;20202;-63
2023/01/17 05:18:54;;;;;;;0.90;0.90;;;4.90;99.90;;;;;;5024079;28;20194;-64
2023/01/17 05:21:21;;;;;;;0.90;0.90;;;4.90;99.90;;;;;;5025458;28;20674;-65
2023/01/17 05:23:46;;;;;;;0.80;0.80;;;5.00;99.90;;;;;;5029117;28;20600;-64
2023/01/17 05:26:12;;;;;;;1.03;0.93;;;5.00;99.90;;;;;;5020975;28;20559;-65
2023/01/17 05:28:38;;;;;;;0.93;0.93;;;5.00;99.90;;;;;;5016969;28;20203;-65
2023/01/17 05:31:03;;;;;;;0.80;0.80;;;5.00;99.90;;;;;;5026110;28;20222;-63
2023/01/17 05:33:29;;;;;;;0.80;0.80;;;5.00;99.90;;;;;;5027741;28;20208;-64
2023/01/17 05:35:54;;;;;;;1.03;0.97;;;5.00;99.90;;;;;;5035238;28;20236;-65
2023/01/17 05:38:21;;;;;;;0.80;0.80;;;5.10;99.90;;;;;;5035066;28;20257;-64
2023/01/17 05:40:46;;;;;;;0.80;0.80;;;5.10;99.90;;;;;;5028258;28;20725;-64
2023/01/17 05:43:12;;;;;;;0.87;0.87;;;5.10;99.90;;;;;;5034814;28;20312;-63
2023/01/17 05:45:37;;;;;;;0.90;0.90;;;5.10;99.90;;;;;;5035545;28;20207;-64
2023/01/17 05:48:03;;;;;;;0.77;0.77;;;5.10;99.90;;;;;;5034927;28;20222;-64
2023/01/17 05:50:33;;;;;;;1.03;0.93;;;5.10;99.90;;;;;;5035260;28;20681;-65
2023/01/17 05:53:10;;;;;;;0.80;0.80;;;5.10;99.90;;;;;;5035944;28;20306;-64
2023/01/17 05:55:37;;;;;;;4.87;1.00;;;5.10;99.90;;;;;;5038666;28;20206;-64
2023/01/17 05:58:02;;;;;;;1.27;1.10;;;5.10;99.90;;;;;;5038565;28;20191;-64
2023/01/17 06:00:29;;;;;;;1.20;1.20;;;5.10;99.90;;;;;;5028089;28;20739;-65
2023/01/17 06:02:56;;;;;;;1.10;1.00;;;5.10;99.90;;;;;;5025052;28;20199;-64
2023/01/17 06:05:23;;;;;;;1.00;1.00;;;5.10;99.90;;;;;;5027113;28;20203;-63
2023/01/17 06:07:49;;;;;;;1.00;1.00;;;5.10;99.90;;;;;;5028187;28;20765;-65
2023/01/17 06:10:16;;;;;;;1.00;1.00;;;5.00;99.90;;;;;;5027948;28;20250;-63
2023/01/17 06:12:43;;;;;;;0.93;0.93;;;5.00;99.90;;;;;;5027630;28;20266;-63
2023/01/17 06:15:10;;;;;;;1.80;1.53;;;5.00;99.90;;;;;;5021138;28;20204;-64
2023/01/17 06:17:36;;;;;;;0.90;0.90;;;5.00;99.90;;;;;;5029298;28;20936;-65
2023/01/17 06:20:02;;;;;;;1.23;1.23;;;5.10;99.90;;;;;;5028512;28;20205;-64
2023/01/17 06:22:28;;;;;;;1.03;1.03;;;5.10;99.90;;;;;;5028811;28;20206;-64
2023/01/17 06:24:53;;;;;;;0.77;0.77;;;5.10;99.90;;;;;;5026230;28;20653;-65
2023/01/17 06:27:19;;;;;;;1.53;1.43;;;5.10;99.90;;;;;;5028370;28;20198;-63
2023/01/17 06:29:44;;;;;;;1.03;1.03;;;5.00;99.90;;;;;;5026642;28;20341;-63
2023/01/17 06:32:12;;;;;;;2.20;1.40;;;5.00;99.90;;;;;;5027790;28;20203;-65
2023/01/17 06:34:37;;;;;;;1.20;1.10;;;5.00;99.90;;;;;;5031113;28;20198;-64
2023/01/17 06:37:03;;;;;;;3.00;1.30;;;5.00;99.90;;;;;;5024149;28;20520;-64
2023/01/17 06:39:28;;;;;;;1.20;1.20;;;5.00;99.90;;;;;;5026655;28;20227;-63
2023/01/17 06:41:54;;;;;;;1.27;1.23;;;5.00;99.90;;;;;;5030795;28;20743;-63
2023/01/17 06:44:19;;;;;;;1.50;1.40;;;5.00;99.90;;;;;;5026242;28;20199;-66
2023/01/17 06:46:46;;;;;;;1.50;1.40;;;5.00;99.90;;;;;;5028303;28;20205;-63
2023/01/17 06:49:11;;;;;;;2.53;1.60;;;4.80;99.90;;;;;;5028003;28;20226;-65
2023/01/17 06:51:38;;;;;;;3.27;1.57;;;4.70;99.90;;;;;;5026428;28;20225;-64
2023/01/17 06:54:04;;;;;;;1.47;1.37;;;4.70;99.90;;;;;;5022654;28;20206;-64
2023/01/17 06:56:31;;;;;;;1.30;1.30;;;4.80;99.90;;;;;;5027595;28;20716;-64
2023/01/17 06:58:56;;;;;;;1.10;1.10;;;4.80;99.90;;;;;;5027283;28;20207;-64
2023/01/17 07:01:22;;;;;;;1.33;1.23;;;4.90;99.90;;;;;;5027248;28;20199;-64
2023/01/17 07:03:48;;;;;;;1.30;1.20;;;4.90;99.90;;;;;;5026865;28;20214;-65
2023/01/17 07:06:13;;;;;;;1.67;1.57;;;4.90;99.90;;;;;;5027117;28;20741;-66
2023/01/17 07:08:39;;;;;;;1.80;1.70;;;5.00;99.90;;;;;;5028259;28;20600;-64
2023/01/17 07:11:06;;;;;;;1.57;1.47;;;4.90;99.90;;;;;;5027760;28;20440;-65
2023/01/17 07:13:39;;;;;;;1.77;1.67;;;4.90;99.90;;;;;;5027460;28;20222;-63
2023/01/17 07:16:05;;;;;;;2.37;1.37;;;4.90;99.90;;;;;;5022120;28;20679;-63
2023/01/17 07:18:32;;;;;;;1.67;1.57;;;4.90;99.90;;;;;;5026880;28;20787;-64
2023/01/17 07:20:57;;;;;;;1.50;1.40;;;5.00;99.90;;;;;;5026476;28;20221;-65
2023/01/17 07:23:24;;;;;;;1.23;1.23;;;5.00;99.90;;;;;;5026916;28;20212;-64
2023/01/17 07:25:54;;;;;;;1.13;1.03;;;5.00;99.90;;;;;;5024290;28;20645;-65
2023/01/17 07:28:20;;;;;;;1.23;1.13;;;5.00;99.90;;;;;;5027060;28;20555;-65
2023/01/17 07:30:45;;;;;;;1.27;1.17;;;5.00;99.90;;;;;;5016038;28;20323;-65
2023/01/17 07:33:11;;;;;;;1.47;1.37;;;5.00;99.90;;;;;;5025034;28;20591;-64
2023/01/17 07:35:37;;;;;;;1.70;1.23;;;5.00;99.90;;;;;;5022708;28;20260;-63
2023/01/17 07:38:04;;;;;;;1.40;1.30;;;5.00;99.90;;;;;;5026020;28;20191;-64
2023/01/17 07:40:30;;;;;;;1.43;1.33;;;5.00;99.90;;;;;;5021761;28;20217;-64
2023/01/17 07:43:12;;;;;;;1.50;1.40;;;4.90;99.90;;;;;;5026693;28;20739;-63
2023/01/17 07:45:41;;;;;;;1.43;1.33;;;4.90;99.90;;;;;;5024942;28;20215;-66
2023/01/17 07:48:06;;;;;;;1.30;1.30;;;4.90;99.90;;;;;;5019575;28;20229;-62
2023/01/17 07:50:32;;;;;;;1.60;1.20;;;4.90;99.90;;;;;;5027000;28;20973;-63
2023/01/17 07:52:57;;;;;;;1.97;1.63;;;4.90;99.90;;;;;;5026450;28;20210;-62
2023/01/17 07:55:23;;;;;;;1.70;1.60;;;4.90;99.90;;;;;;5027014;28;20249;-63
2023/01/17 07:57:49;;;;;;;1.90;1.47;;;4.90;99.90;;;;;;5024478;28;20253;-64
2023/01/17 08:00:15;;;;;;;1.63;1.53;;;4.90;99.90;;;;;;5026329;28;20204;-64
2023/01/17 08:02:41;;;;;;;1.37;1.27;;;4.90;99.90;;;;;;5025806;28;20195;-64
2023/01/17 08:05:07;;;;;;;2.03;1.70;;;4.90;99.90;;;;;;5025856;28;20732;-64
2023/01/17 08:07:32;;;;;;;2.70;1.60;;;4.90;99.90;;;;;;5028904;28;20256;-64
2023/01/17 08:09:59;;;;;;;1.87;1.77;;;4.90;99.90;;;;;;5021209;28;20203;-64
2023/01/17 08:12:25;;;;;;;1.57;1.33;;;5.00;99.90;;;;;;5017348;28;20224;-64
2023/01/17 08:14:50;;;;;;;2.40;1.73;;;5.00;99.90;;;;;;5026110;28;20203;-64
2023/01/17 08:17:17;;;;;;;1.50;1.40;;;5.00;99.90;;;;;;5026334;28;20245;-64
2023/01/17 08:19:43;;;;;;;1.80;1.70;;;4.90;99.90;;;;;;5025937;28;20241;-64
2023/01/17 08:22:10;;;;;;;1.80;1.40;;;5.00;99.90;;;;;;5025882;28;20232;-62
2023/01/17 08:24:37;;;;;;;1.70;1.60;;;5.00;99.90;;;;;;5023870;28;20285;-66
2023/01/17 08:27:03;;;;;;;2.50;1.90;;;5.00;99.90;;;;;;5025634;28;20206;-64
2023/01/17 08:29:28;;;;;;;1.40;1.27;;;5.00;99.90;;;;;;5025539;28;20622;-65
2023/01/17 08:31:54;;;;;;;1.40;1.30;;;5.00;99.90;;;;;;5025308;28;20199;-64
2023/01/17 08:34:20;;;;;;;2.17;1.70;;;5.00;99.90;;;;;;5024974;28;20258;-63
2023/01/17 08:36:46;;;;;;;1.40;1.30;;;5.00;99.90;;;;;;5025664;28;20296;-64
2023/01/17 08:39:13;;;;;;;1.00;1.00;;;5.10;99.90;;;;;;5024242;28;20199;-63
2023/01/17 08:41:38;;;;;;;1.40;1.30;;;5.10;99.90;;;;;;5025875;28;20419;-63
2023/01/17 08:44:04;;;;;;;1.37;1.27;;;5.10;99.90;;;;;;5031839;28;20623;-63
2023/01/17 08:46:30;;;;;;;1.83;1.23;;;5.10;99.90;;;;;;5035787;28;20354;-64
2023/01/17 08:48:57;;;;;;;2.37;1.10;;;5.10;99.90;;;;;;5035662;28;20215;-65
2023/01/17 08:51:25;;;;;;;2.50;1.20;;;5.10;99.90;;;;;;5028696;28;20199;-64
2023/01/17 08:53:51;;;;;;;1.10;1.10;;;5.10;99.90;;;;;;5034970;28;20221;-64
2023/01/17 08:56:17;;;;;;;1.20;1.10;;;5.20;99.90;;;;;;5025861;28;20277;-65
2023/01/17 08:58:42;;;;;;;2.47;1.17;;;5.20;99.90;;;;;;5024935;28;20693;-65
2023/01/17 09:01:08;;;;;;;1.53;1.43;;;5.30;99.90;;;;;;5021429;28;20201;-61
2023/01/17 09:03:34;;;;;;;1.57;1.37;;;5.20;99.90;;;;;;5020784;28;20204;-64
2023/01/17 09:06:25;;;;;;;1.80;1.23;;;5.30;99.90;;;;;;5013426;28;20210;-64
2023/01/17 09:08:52;;;;;;;1.00;1.00;;;5.30;99.90;;;;;;5013150;28;20211;-64
2023/01/17 09:11:18;;;;;;;1.47;1.20;;;5.40;99.90;;;;;;5015196;28;20290;-63
2023/01/17 09:13:43;;;;;;;0.80;0.80;;;5.40;99.90;;;;;;5019945;28;20300;-63
2023/01/17 09:16:09;;;;;;;2.20;1.10;;;5.50;99.90;;;;;;5012545;28;20208;-63
2023/01/17 09:18:35;;;;;;;1.23;1.00;;;5.60;99.90;;;;;;5015388;28;20195;-62
2023/01/17 09:21:15;;;;;;;1.20;1.07;;;5.50;99.90;;;;;;5006140;28;20214;-62
2023/01/17 09:23:41;;;;;;;1.00;1.00;;;5.50;99.90;;;;;;5010608;28;20199;-61
2023/01/17 09:26:21;;;;;;;5.60;0.90;;;5.40;99.90;;;;;;5014286;28;20252;-62
2023/01/17 09:28:47;;;;;;;0.70;0.70;;;5.40;99.90;;;;;;5013770;28;20211;-68
2023/01/17 09:31:12;;;;;;;0.70;0.70;;;5.40;99.90;;;;;;5018413;28;20502;-67
2023/01/17 09:33:41;;;;;;;0.63;0.63;;;5.40;99.90;;;;;;5011281;28;20211;-69
2023/01/17 09:36:07;;;;;;;0.60;0.60;;;5.40;99.90;;;;;;5010494;28;20203;-69
2023/01/17 09:38:33;;;;;;;0.80;0.80;;;5.40;99.90;;;;;;5013144;28;20207;-69
2023/01/17 09:41:01;;;;;;;1.63;0.60;;;5.30;99.90;;;;;;5005542;28;20196;-70
2023/01/17 09:43:39;;;;;;;0.80;0.80;;;5.10;99.90;;;;;;5019401;28;20211;-73
2023/01/17 09:46:09;;;;;;;1.17;0.70;;;5.00;99.90;;;;;;5026828;28;20206;-72
2023/01/17 09:48:37;;;;;;;0.43;0.43;;;5.10;99.90;;;;;;5028210;28;20235;-58
2023/01/17 09:51:17;;;;;;;1.03;0.80;;;5.10;99.90;;;;;;5029192;28;20810;-61
2023/01/17 09:53:43;;;;;;;1.07;0.50;;;5.60;99.90;;;;;;5009636;28;20615;-62
2023/01/17 09:56:37;;;;;;;0.60;0.60;;;5.90;99.90;;;;;;5029345;28;20195;-59
2023/01/17 09:59:13;;;;;;;0.40;0.40;;;6.00;99.90;;;;;;5008166;28;20211;-58
2023/01/17 10:02:04;;;;;;;0.60;0.60;;;6.10;99.90;;;;;;5013111;28;20273;-58
2023/01/17 10:04:39;;;;;;;0.50;0.50;;;6.10;99.90;;;;;;5024121;28;20242;-57
2023/01/17 10:07:33;;;;;;;1.67;1.07;;;6.20;99.90;;;;;;5022967;28;20222;-57
2023/01/17 10:10:15;;;;;;;1.80;1.40;;;6.20;99.90;;;;;;5025039;28;20203;-59
2023/01/17 10:12:52;;;;;;;1.60;1.07;;;6.20;99.90;;;;;;5029296;28;20226;-60
2023/01/17 10:15:37;;;;;;;2.53;0.60;;;6.10;99.90;;;;;;5018998;28;20799;-60
2023/01/17 10:18:38;;;;;;;0.50;0.50;;;6.20;99.90;;;;;;5015783;28;20244;-58
2023/01/17 10:21:21;;;;;;;0.70;0.60;;;6.00;99.90;;;;;;5010658;28;20211;-58
2023/01/17 10:24:17;;;;;;;0.77;0.50;;;6.00;99.90;;;;;;5020139;28;20195;-69
2023/01/17 10:26:47;;;;;;;1.67;0.70;;;6.10;99.90;;;;;;5026051;28;20233;-70
2023/01/17 10:29:17;;;;;;;0.50;0.50;;;5.90;99.90;;;;;;5023939;28;20294;-68
2023/01/17 10:31:57;;;;;;;0.50;0.50;;;5.80;99.90;;;;;;5027830;28;20632;-66
2023/01/17 10:34:45;;;;;;;0.67;0.67;;;5.80;99.90;;;;;;5026360;28;20218;-66
2023/01/17 10:37:22;;;;;;;0.50;0.50;;;5.90;99.90;;;;;;5022175;28;20792;-64
2023/01/17 10:39:50;;;;;;;0.67;0.67;;;5.80;99.90;;;;;;5023187;28;20273;-65
2023/01/17 10:42:23;;;;;;;0.43;0.43;;;5.70;99.90;;;;;;5027393;28;20195;-65
2023/01/17 10:45:02;;;;;;;0.50;0.50;;;5.70;99.90;;;;;;5025475;28;20195;-68
2023/01/17 10:47:33;;;;;;;0.70;0.70;;;5.60;99.90;;;;;;5026015;28;20272;-63
2023/01/17 10:50:02;;;;;;;0.60;0.60;;;5.60;99.90;;;;;;5018230;28;20225;-62
2023/01/17 10:52:36;;;;;;;0.50;0.50;;;5.50;99.90;;;;;;5012368;28;20219;-63
2023/01/17 10:55:08;;;;;;;2.07;0.70;;;5.30;99.90;;;;;;5006104;28;20215;-63
2023/01/17 10:57:39;;;;;;;0.40;0.40;;;5.20;99.90;;;;;;5015543;28;20250;-63
2023/01/17 11:00:30;;;;;;;0.93;0.67;;;5.10;99.90;;;;;;5015819;28;20196;-63
2023/01/17 11:02:56;;;;;;;1.00;0.73;;;5.00;99.90;;;;;;5026310;28;20224;-62
2023/01/17 11:05:30;;;;;;;0.73;0.70;;;5.00;99.90;;;;;;5025792;28;20207;-62
2023/01/17 11:08:00;;;;;;;0.67;0.67;;;5.00;99.90;;;;;;5018612;28;20200;-63
2023/01/17 11:10:52;;;;;;;0.90;0.70;;;4.90;99.90;;;;;;5003840;28;20200;-62
2023/01/17 11:13:21;;;;;;;0.90;0.90;;;5.00;99.90;;;;;;5011627;28;20226;-62
2023/01/17 11:15:49;;;;;;;0.50;0.50;;;5.00;99.90;;;;;;5028265;28;20204;-63
2023/01/17 11:18:17;;;;;;;0.70;0.60;;;4.90;99.90;;;;;;5024673;28;20196;-62
2023/01/17 11:20:43;;;;;;;0.80;0.70;;;4.80;99.90;;;;;;5026534;28;20283;-63
2023/01/17 11:23:19;;;;;;;1.50;0.80;;;4.70;99.90;;;;;;5030800;28;20286;-63
2023/01/17 11:25:56;;;;;;;2.20;0.70;;;4.50;99.90;;;;;;5027933;28;20210;-67
2023/01/17 11:28:30;;;;;;;0.87;0.73;;;4.20;99.90;;;;;;5025100;28;20239;-67
2023/01/17 11:30:58;;;;;;;0.50;0.50;;;4.00;99.90;;;;;;5026590;28;20692;-64
2023/01/17 11:33:47;;;;;;;0.60;0.60;;;4.00;99.90;;;;;;5022715;28;20436;-66
2023/01/17 11:36:15;;;;;;;0.70;0.70;;;3.90;99.90;;;;;;5012887;28;20682;-64
2023/01/17 11:38:55;;;;;;;1.50;1.23;;;3.60;99.90;;;;;;5011107;28;20724;-64
2023/01/17 11:41:22;;;;;;;1.13;0.80;;;3.10;99.90;;;;;;5013375;28;20202;-66
2023/01/17 11:43:53;;;;;;;2.57;1.17;;;2.80;99.90;;;;;;5010023;28;20213;-65
2023/01/17 11:46:20;;;;;;;0.83;0.80;;;2.70;99.90;;;;;;5011497;28;20713;-67
2023/01/17 11:48:52;;;;;;;2.77;1.50;;;2.80;99.90;;;;;;5011480;28;20314;-65
2023/01/17 11:51:22;;;;;;;2.00;1.20;;;3.00;99.90;;;;;;5016863;28;20210;-65
2023/01/17 11:53:48;;;;;;;2.97;1.30;;;3.30;99.90;;;;;;5012275;28;20211;-66
2023/01/17 11:56:28;;;;;;;2.70;1.40;;;3.50;99.90;;;;;;5012736;28;20836;-66
2023/01/17 11:59:16;;;;;;;5.37;2.10;;;3.80;99.90;;;;;;5026232;28;20202;-66
2023/01/17 12:02:05;;;;;;;1.57;1.47;;;3.90;99.90;;;;;;5022284;28;20214;-66
2023/01/17 12:04:39;;;;;;;1.40;1.30;;;3.90;99.90;;;;;;5010540;28;20292;-65
2023/01/17 12:07:35;;;;;;;1.83;1.73;;;3.80;99.90;;;;;;5021757;28;20337;-65
2023/01/17 12:10:07;;;;;;;1.60;1.50;;;4.00;99.90;;;;;;5010206;28;20213;-65
2023/01/17 12:15:59;;;;;;;1.77;1.67;;;4.20;99.90;;;;;;5014146;28;20215;-67
2023/01/17 12:18:35;;;;;;;2.60;1.73;;;4.40;99.90;;;;;;5017048;28;20222;-64
2023/01/17 12:21:22;;;;;;;1.67;1.37;;;4.70;99.90;;;;;;5006085;28;20831;-65
2023/01/17 12:24:06;;;;;;;2.43;1.60;;;4.80;99.90;;;;;;5009723;28;20198;-65
2023/01/17 12:26:40;;;;;;;1.57;1.13;;;5.00;99.90;;;;;;5014302;28;20191;-65
2023/01/17 12:29:30;;;;;;;1.30;1.20;;;5.40;99.90;;;;;;5011258;28;20704;-65
2023/01/17 12:32:28;;;;;;;1.10;0.83;;;5.30;99.90;;;;;;5010002;28;20202;-64
2023/01/17 12:35:00;;;;;;;1.60;0.90;;;5.10;99.90;;;;;;5008766;28;20219;-66
2023/01/17 12:37:48;;;;;;;2.00;1.37;;;4.80;99.90;;;;;;5013175;28;20203;-65
2023/01/17 12:40:21;;;;;;;3.87;0.97;;;4.70;99.90;;;;;;5004832;28;20195;-66
2023/01/17 12:43:01;;;;;;;1.87;1.13;;;4.80;99.90;;;;;;5010065;28;20202;-67
2023/01/17 12:45:32;;;;;;;0.97;0.90;;;4.70;99.90;;;;;;5019736;28;20225;-66
2023/01/17 12:48:03;;;;;;;0.83;0.80;;;4.80;99.90;;;;;;5018878;28;20309;-66
2023/01/17 12:50:50;;;;;;;2.00;1.10;;;4.80;99.90;;;;;;5022199;28;20214;-66
2023/01/17 12:53:37;;;;;;;1.33;0.80;;;4.70;99.90;;;;;;5022613;28;20217;-68
2023/01/17 12:56:09;;;;;;;0.83;0.83;;;4.70;99.90;;;;;;5021849;28;20194;-66
2023/01/17 12:58:40;;;;;;;0.73;0.73;;;4.80;99.90;;;;;;5023647;28;20195;-73
2023/01/17 13:01:38;;;;;;;0.83;0.83;;;4.90;99.90;;;;;;5027830;28;20946;-65
2023/01/17 13:04:36;;;;;;;1.33;0.90;;;5.10;99.90;;;;;;5026435;28;20256;-65
2023/01/17 13:07:14;;;;;;;2.90;1.03;;;5.00;99.90;;;;;;5020564;28;20202;-66
2023/01/17 13:09:47;;;;;;;2.93;1.00;;;5.00;99.90;;;;;;5019729;28;20190;-65
2023/01/17 13:12:16;;;;;;;3.23;1.17;;;4.90;99.90;;;;;;5018636;28;20204;-65
2023/01/17 13:14:45;;;;;;;1.57;1.30;;;4.90;99.90;;;;;;5022540;28;20234;-64
2023/01/17 13:17:47;;;;;;;1.17;0.67;;;4.90;99.90;;;;;;5030313;28;20363;-65
2023/01/17 13:20:32;;;;;;;1.60;1.00;;;4.90;99.90;;;;;;5026247;28;20318;-65
2023/01/17 13:23:15;;;;;;;1.00;0.87;;;4.90;99.90;;;;;;5024775;28;20638;-65
2023/01/17 13:25:48;;;;;;;1.37;1.00;;;5.10;99.90;;;;;;5024860;28;20226;-64
2023/01/17 13:28:34;;;;;;;2.93;1.03;;;5.30;99.90;;;;;;5028662;28;20199;-64
2023/01/17 13:31:22;;;;;;;1.63;0.90;;;5.30;99.90;;;;;;5025818;28;20198;-64
2023/01/17 13:34:08;;;;;;;0.97;0.97;;;5.10;99.90;;;;;;5024858;28;20589;-68
2023/01/17 13:36:49;;;;;;;2.10;0.90;;;4.80;99.90;;;;;;5025526;28;20771;-63
2023/01/17 13:39:51;;;;;;;2.70;1.20;;;4.60;99.90;;;;;;5020484;28;20223;-63
2023/01/17 13:42:28;;;;;;;2.23;1.03;;;4.50;99.90;;;;;;5018787;28;20233;-65
2023/01/17 13:44:54;;;;;;;2.33;1.00;;;4.50;99.90;;;;;;5026460;28;20698;-64
2023/01/17 13:47:20;;;;;;;4.43;1.10;;;4.60;99.90;;;;;;5022317;28;20213;-64
2023/01/17 13:49:49;;;;;;;2.80;1.10;;;4.70;99.90;;;;;;5019172;28;20227;-64
2023/01/17 13:52:17;;;;;;;1.43;1.20;;;4.90;99.90;;;;;;5017054;28;20599;-63
2023/01/17 13:54:48;;;;;;;2.33;1.13;;;5.00;99.90;;;;;;5022210;28;20206;-62
2023/01/17 13:57:40;;;;;;;3.27;1.13;;;5.10;99.90;;;;;;5023476;28;20217;-62
2023/01/17 14:00:20;;;;;;;2.17;1.20;;;5.20;99.90;;;;;;5018654;28;20278;-63
2023/01/17 14:02:49;;;;;;;4.43;1.40;;;5.30;99.90;;;;;;5020302;28;20925;-62
2023/01/17 14:05:22;;;;;;;1.60;0.90;;;5.30;99.90;;;;;;5020456;28;20187;-63
2023/01/17 14:07:58;;;;;;;6.00;1.20;;;5.40;99.90;;;;;;5017417;28;20693;-62
2023/01/17 14:10:43;;;;;;;2.10;0.70;;;5.50;99.90;;;;;;5019985;28;20203;-63
2023/01/17 14:13:32;;;;;;;3.50;1.30;;;5.60;99.90;;;;;;5025978;28;20206;-63
2023/01/17 14:15:58;;;;;;;1.40;1.03;;;5.80;99.90;;;;;;5027867;28;20207;-66
2023/01/17 14:18:36;;;;;;;2.70;1.07;;;5.90;99.90;;;;;;5030862;28;20190;-64
2023/01/17 14:21:11;;;;;;;1.27;1.10;;;5.80;99.90;;;;;;5025466;28;20211;-63
2023/01/17 14:23:47;;;;;;;7.93;0.90;;;5.50;99.90;;;;;;5022246;28;20214;-74
2023/01/17 14:26:24;;;;;;;2.80;1.10;;;5.40;99.90;;;;;;5026071;28;20198;-64
2023/01/17 14:28:51;;;;;;;3.73;1.10;;;5.30;99.90;;;;;;5023953;28;20249;-64
2023/01/17 14:31:19;;;;;;;2.33;1.27;;;5.20;99.90;;;;;;5026543;28;20196;-64
2023/01/17 14:33:44;;;;;;;2.30;1.40;;;5.20;99.90;;;;;;5027143;28;20219;-63
2023/01/17 14:36:31;;;;;;;5.70;1.23;;;5.30;99.90;;;;;;5017826;28;20192;-64
2023/01/17 14:38:57;;;;;;;2.70;1.43;;;5.40;99.90;;;;;;5017901;28;20280;-65
2023/01/17 14:41:28;;;;;;;2.47;1.10;;;5.30;99.90;;;;;;5024201;28;20672;-65
2023/01/17 14:43:54;;;;;;;1.50;1.07;;;5.10;99.90;;;;;;5031332;28;20203;-64
2023/01/17 14:46:25;;;;;;;3.63;1.33;;;5.10;99.90;;;;;;5022505;28;20225;-64